Larimer Hill, Indiana
Current Conditions -  °F | °C
As of 10:53 PM on Tuesday 21 Oct 2014 (Local Time) from KHUF Reporting Station
Clear Clear  
Wind Chill: 43°   Ceiling: Unl
Heat Index: 47°   Visibility: 10mi
Dew Point: 42°   Wind: 8mph
Humidity: 83%   Direction: 10°N
Pressure: 30.22"   Gusts: NA
Location:  39.5107°N, 87.4772°W
Report Text: KHUF 220253Z 01007KT 10SM CLR 08/06 A3022 RMK AO2 SLP234 T00830056 53018 $
Loading
Personal Weather Stations






























Interactive Weather Map
Tropical Storm Tracking
New forecast layout! Learn more

10-Day Weather Forecast

Advertisements
Track Severe Weather on mobile